Hauptseite
METAR-TAF:

METAR-TAF

Flughäfen :

Antsiranana, Madagaskar

Breite: 12-21S, Länge: 049-18E, Höhe: 114 m

Beobachtung

Neuester Wetterbericht von vor 39 Minuten, um 05:00 UTC
Wind 14 kt aus Südost
Temperatur 22°C
Luftfeuchtigkeit 83%
Luftdruck 1017 hPa
Sichtweite 10 km oder mehr
Durchbrochene Bewölkung in der Höhe von 2000 ft

METAR: FMNA 130500Z 14014KT 9999 BKN020 22/19 Q1017

Zeit: 08:39 (05:39 UTC)


TAF: fehlend

Wetterbeobachtungen und Prognosen von mehr als 4000 Flughäfen (METAR und TAF Bericht).

Die verfügbaren Stationen werden durch gelbe und rote Markierungen auf der Karte dargestellt.

Führen Sie die Maus auf sie, um den Namen der Station zu sehen.

Darauf klicken, um die Beobachtung von Wetterbeobachtungen und Prognosen zu sehen.

Um die Karte zu ändern : klicken Sie auf den grünen Tasten mit einem schwarzen Kreuz Zum Vergrößern, auf den grünen Button mit einem Gedankenstrich zu verkleinern, oder auf die grünen Pfeile für benachbarte Karten.


METAR-TAF: